首页
METAR-TAF:

METAR-TAF

机场 :

科迪, 怀俄明州, 美国

纬度: 44-31N, 经度: 109-01W, 海拔: 1551米

当前天气观测

该预报发布于48分钟前的20:56 UTC
风速9节,风向东北
温度 23°C
湿度 38%
气压 1026 hPa
能見度: 16.1公里
天空无云

METAR: KCOD 212056Z AUTO 05009KT 10SM CLR 23/08 A3029 RMK AO2 SLP222 6//// T02280083 58004 PNO $

时间: 15:44 (21:44 UTC)

预报

该预报发布于4小时和9分钟前的17:35 UTC
预报有效从21日的 18点(UTC)到 22日的 18点(UTC)
风速11节,风向,有时为17节阵风
能見度: 10公里
天空无云
从 22日的 0100点(UTC)
风速6节,风向
能見度: 10公里
天空无云
从 22日的 0300点(UTC)
风速5节,风向多变
能見度: 10公里
天空无云
从 22日的 1600点(UTC)
风速6节,风向东南
能見度: 10公里
天空无云

TAF: KCOD 211735Z 2118/2218 36011G17KT P6SM SKC FM220100 36006KT P6SM SKC FM220300 VRB05KT P6SM SKC FM221600 14006KT P6SM SKC AMD LTD TO CLD VIS AND WIND

超过4000个机场的气象观测和天气预报(METAR&TAF报告)。

可查询的气象台以黄色和红色小点在地图上表示。

将鼠标移到小点上方,可查看气象台名称。

然后点击查看天气观测和预报。

如需切换地图:点击带黑十字的绿色按钮放大地图;点击带横线的绿色按钮缩小地图;或者点击绿色箭头查看邻近地区的地图。


METAR-TAF: